Share

Safford, AZ

Safford Regional (KSAD) Elev 3176 ft | 32.86 °N, 109.64 °W | Change Station

Current weather conditions updated 8 minutes ago

Clear
Clear
79 °F
Feels Like 79 °F
N
4
Wind Variable Wind from WSW
Sunrise 5:43 AM
Sunset 6:52 PM
Moon Waning Gibbous

Tomorrow is forecast to be Warmer than today.

Pressure 29.90 in
Visibility 10.0 miles
Clouds Clear
Dew Point 31 °F
Humidity 17%
Rainfall 0.00 in
Snow Depth Not available.
UV 0 out of 16
Pollen 7.40 out of 12
Air Quality Not available.
Flu Activity Local Activity
METAR KSAD 210151Z AUTO 25003KT 10SM CLR 26/M01 A3000 RMK AO2 SLP123 T02611006

More Conditions Fewer Conditions

Pressure 29.90 in
Visibility 10.0 miles
Clouds Clear
Dew Point 31 °F
Humidity 17%
Rainfall 0.00 in
Snow Depth Not available.
UV 0 out of 16
Pollen 7.40 out of 12
Air Quality Not available.
Flu Activity Local Activity
METAR KSAD 210151Z AUTO 25003KT 10SM CLR 26/M01 A3000 RMK AO2 SLP123 T02611006

More Conditions Fewer Conditions

10-Day Weather Forecast

Almanac

Astronomy

Apr. 20, 2014 Rise Set
Actual Time 5:43 AM MST 6:52 PM MST
Civil Twilight 5:17 AM MST 7:18 PM MST
Nautical Twilight 4:47 AM MST 7:48 PM MST
Astronomical Twilight 4:15 AM MST 8:20 PM MST
Moon No Moon Rise 10:13 AM MST (4/20)
Length of Visible Light 14h 00m
Length of Day
13h 09m
Tomorrow will be 1m 52s longer.
Waning Gibbous, 64% of the Moon is Illuminated
Today
Waning Gibbous
Apr 22
Last Quarter
Apr 29
New
May 6
First Quarter
May 14
Full

Today's Extremes

State Highs State Lows

Community

  • Sun Pillar and Geese
    Sun Pillar and Geese
  • Easter Dance
    Easter Dance
  • spring skiing mount Baker WA
    spring skiing mount Baker WA
  • Morning Sun
    Morning Sun
  • Happy Easter
    Happy Easter

WunderPhotos

Upload Photos

1,703,510 photos uploaded!

WunderBlogs® & News

Nearby

Snow Depth

Station Depth Elevation
Maverick Fork 0 in 9200 ft
Workman Creek 0 in 6900 ft
Heber 0 in 7640 ft
Happy Jack 0 in 7630 ft
Snowslide Canyon 4 in 9730 ft

Coastal Water Temperatures

Place Temperature
No Stations Reporting

Earthquake Activity

City Distance Mag. Time & Date
No recent earthquake activity has been reported nearby.
Minimum magnitude displayed is 2.5.

Nearby Weather Stations

Station Location Temp. Windchill Dew Point Humidity Wind Precip. Elev Updated Type
RAWS BLACK HILLS AZ, Fort Thomas, AZ 83 °F - 31 °F 15% WNW  at  7 mph 0.00 in / hr 3352 ft 5:53 PM MST MADIS
RAWS GUTHRIE AZ, Morenci, AZ 65 °F - 34 °F 31% NW  at  6 mph 0.00 in / hr 6339 ft 6:03 PM MST MADIS
RAWS COLUMBINE AZ, Thatcher, AZ 54 °F - 25 °F 32% West  at  2 mph 0.00 in / hr 9521 ft 6:02 PM MST MADIS
MGIO, Safford, AZ 39.0 °F 39 °F 26 °F 60% NNW  at  1.0 mph 0.00 in / hr 10420 ft 6:46 PM MST Normal

Show More Stations Show Fewer Stations

What do you think?

We're not finished. Please let us know what you like, what you don't like, and what you are still missing.